createdAt,value
2023-03-23T15:58:48.377Z,9.03
2023-03-23T16:01:23.903Z,9.07
2023-03-23T16:04:07.093Z,9.16
2023-03-23T16:06:35.826Z,9.10
2023-03-23T16:09:04.161Z,8.97
2023-03-23T16:11:32.594Z,8.98
2023-03-23T16:14:00.289Z,8.76
2023-03-23T16:16:32.671Z,8.46
2023-03-23T16:18:59.657Z,8.21
2023-03-23T16:21:26.769Z,8.02
2023-03-23T16:23:53.794Z,7.72
2023-03-23T16:26:20.933Z,7.69
2023-03-23T16:28:47.832Z,7.75
2023-03-23T16:31:15.653Z,7.49
2023-03-23T16:33:42.578Z,7.53
2023-03-23T16:36:12.860Z,7.48
2023-03-23T16:38:49.622Z,7.37
2023-03-23T16:41:18.158Z,7.43
2023-03-23T16:43:45.035Z,7.29
2023-03-23T16:46:13.652Z,7.40
2023-03-23T16:48:40.735Z,7.29
2023-03-23T16:51:08.177Z,7.34
2023-03-23T16:53:36.130Z,7.33
2023-03-23T16:56:03.946Z,7.24
2023-03-23T16:58:31.192Z,7.28
2023-03-23T17:00:58.418Z,7.26
2023-03-23T17:03:25.688Z,7.31
2023-03-23T17:05:53.169Z,7.33
2023-03-23T17:08:30.014Z,7.29
2023-03-23T17:10:56.968Z,7.49
2023-03-23T17:13:25.609Z,7.42
2023-03-23T17:15:55.258Z,7.33
2023-03-23T17:18:24.552Z,7.31
2023-03-23T17:20:54.474Z,7.33
2023-03-23T17:23:21.838Z,7.40
2023-03-23T17:25:48.937Z,7.39
2023-03-23T17:28:16.280Z,7.39
2023-03-23T17:30:44.792Z,7.45
2023-03-23T17:33:12.989Z,7.34
2023-03-23T17:35:40.333Z,7.45
2023-03-23T17:38:07.285Z,7.39
2023-03-23T17:40:34.226Z,7.23
2023-03-23T17:43:01.217Z,7.24
2023-03-23T17:45:28.193Z,7.22
2023-03-23T17:47:55.174Z,7.23
2023-03-23T17:50:22.444Z,7.32
2023-03-23T17:52:50.032Z,7.15
2023-03-23T17:55:17.179Z,7.07
2023-03-23T17:57:44.901Z,7.13
2023-03-23T18:00:13.830Z,7.13
2023-03-23T18:02:41.035Z,7.13
2023-03-23T18:05:09.563Z,7.08
2023-03-23T18:07:37.252Z,6.97
2023-03-23T18:10:11.830Z,7.07
2023-03-23T18:12:40.353Z,7.00
2023-03-23T18:15:08.412Z,7.05
2023-03-23T18:17:35.574Z,7.02
2023-03-23T18:20:03.745Z,6.90
2023-03-23T18:22:30.786Z,6.93
2023-03-23T18:24:58.593Z,6.94
2023-03-23T18:27:26.379Z,6.85
2023-03-23T18:29:53.412Z,6.95
2023-03-23T18:32:20.796Z,6.89
2023-03-23T18:34:48.730Z,6.90
2023-03-23T18:37:16.115Z,6.90
2023-03-23T18:39:43.304Z,6.81
2023-03-23T18:42:10.223Z,6.79
2023-03-23T18:44:37.389Z,6.78
2023-03-23T18:47:04.766Z,6.67
2023-03-23T18:49:33.561Z,6.71
2023-03-23T18:52:01.044Z,6.75
2023-03-23T18:54:28.988Z,6.68
2023-03-23T18:57:00.443Z,6.75
2023-03-23T18:59:30.599Z,6.74
2023-03-23T19:01:58.165Z,6.74
2023-03-23T19:04:25.472Z,6.88
2023-03-23T19:06:52.635Z,6.84
2023-03-23T19:09:19.662Z,6.83
2023-03-23T19:11:47.621Z,6.89
2023-03-23T19:14:15.947Z,6.80
2023-03-23T19:16:42.814Z,6.90
2023-03-23T19:19:10.314Z,6.91
2023-03-23T19:21:40.035Z,6.86
2023-03-23T19:24:07.864Z,6.92
2023-03-23T19:26:43.674Z,6.77
2023-03-23T19:41:48.597Z,6.33
2023-03-23T19:44:15.656Z,6.49
2023-03-23T19:46:42.632Z,6.68
2023-03-23T19:49:09.891Z,6.76
2023-03-23T19:51:37.033Z,6.82
2023-03-23T19:54:07.151Z,6.75
2023-03-23T19:56:35.285Z,6.69
2023-03-23T19:59:02.188Z,6.82
2023-03-23T20:01:29.489Z,6.69
2023-03-23T20:03:59.984Z,6.56
2023-03-23T20:06:29.249Z,6.64
2023-03-23T20:09:00.231Z,6.54
2023-03-23T20:11:27.878Z,6.50
2023-03-23T20:13:55.449Z,6.48
2023-03-23T20:16:22.742Z,6.56
2023-03-23T20:18:50.317Z,6.50
2023-03-23T20:21:22.406Z,6.47
2023-03-23T20:23:54.402Z,6.56
2023-03-23T20:26:42.438Z,6.47
2023-03-23T20:29:10.579Z,6.47
2023-03-23T20:31:40.719Z,6.48
2023-03-23T20:34:11.725Z,6.39
2023-03-23T20:36:45.353Z,6.40
2023-03-23T20:39:23.401Z,6.46
2023-03-23T20:41:54.837Z,6.48
2023-03-23T20:44:25.306Z,6.43
2023-03-23T20:46:54.987Z,6.59
2023-03-23T20:49:22.990Z,6.58
2023-03-23T20:51:51.965Z,6.48
2023-03-23T20:54:20.375Z,6.48
2023-03-23T20:56:48.330Z,6.48
2023-03-23T20:59:15.948Z,6.44
2023-03-23T21:01:43.884Z,6.34
2023-03-23T21:04:16.483Z,6.37
2023-03-23T21:06:44.704Z,6.45
2023-03-23T21:09:13.565Z,6.37
2023-03-23T21:11:40.751Z,6.38
2023-03-23T21:14:08.963Z,6.44
2023-03-23T21:16:36.355Z,6.48
2023-03-23T21:19:04.860Z,6.47
2023-03-23T21:21:31.730Z,6.41
2023-03-23T21:23:59.196Z,6.53
2023-03-23T21:26:29.033Z,6.59
2023-03-23T21:29:01.725Z,6.47
2023-03-23T21:31:33.371Z,6.36
2023-03-23T21:34:01.157Z,6.49
2023-03-23T21:36:29.053Z,6.51
2023-03-23T21:39:02.469Z,6.36
2023-03-23T21:41:42.612Z,6.37
2023-03-23T21:44:13.704Z,6.40
2023-03-23T21:46:42.125Z,6.41
2023-03-23T21:49:14.302Z,6.38
2023-03-23T21:51:42.200Z,6.38
2023-03-23T21:54:11.892Z,6.48
2023-03-23T21:56:38.974Z,6.30
2023-03-23T21:59:07.794Z,6.32
2023-03-23T22:01:37.215Z,6.32
2023-03-23T22:04:05.256Z,6.32
2023-03-23T22:06:35.644Z,6.15
2023-03-23T22:09:05.580Z,6.21
2023-03-23T22:11:32.975Z,6.35
2023-03-23T22:14:01.067Z,6.17
2023-03-23T22:16:31.436Z,6.19
2023-03-23T22:19:00.366Z,6.20
2023-03-23T22:21:29.761Z,6.27
2023-03-23T22:24:00.521Z,6.19
2023-03-23T22:26:28.699Z,6.12
2023-03-23T22:28:56.578Z,6.15
2023-03-23T22:31:27.861Z,6.19
2023-03-23T22:33:56.985Z,6.02
2023-03-23T22:36:25.966Z,6.01
2023-03-23T22:38:53.412Z,6.16
2023-03-23T22:41:25.118Z,6.23
2023-03-23T22:43:52.506Z,6.01
2023-03-23T22:46:19.500Z,6.08
2023-03-23T22:48:46.757Z,6.20
2023-03-23T22:51:15.661Z,6.29
2023-03-23T22:53:42.978Z,6.21
2023-03-23T22:56:12.768Z,6.26
2023-03-23T22:58:41.053Z,6.40
2023-03-23T23:01:12.447Z,6.44
2023-03-23T23:03:40.527Z,6.24
2023-03-23T23:06:08.293Z,6.27
2023-03-23T23:08:35.306Z,6.29
2023-03-23T23:11:03.395Z,6.12
2023-03-23T23:13:32.634Z,6.00
2023-03-23T23:16:04.355Z,5.98
2023-03-23T23:18:33.298Z,6.06
2023-03-23T23:21:04.559Z,5.80
2023-03-23T23:23:31.798Z,5.79
2023-03-23T23:25:58.640Z,5.81
2023-03-23T23:28:25.587Z,5.87
2023-03-23T23:30:52.689Z,5.65
2023-03-23T23:33:20.555Z,5.55
2023-03-23T23:35:48.080Z,5.63
2023-03-23T23:38:16.749Z,5.63
2023-03-23T23:40:45.418Z,5.53
2023-03-23T23:43:14.897Z,5.43
2023-03-23T23:45:45.240Z,5.60
2023-03-23T23:48:14.912Z,5.40
2023-03-23T23:50:41.767Z,5.26
2023-03-23T23:53:10.017Z,5.33
2023-03-23T23:55:38.725Z,5.48
2023-03-23T23:58:05.751Z,5.18
